Tiempo atmosférico en la estación meteorológica de Alcazar De San Juan, Ciudad Real (664 m.)



Fecha
DESCASC
Temp. máxima en grados centígrados (hora)
DESCASC
Temp. mínima en grados centígrados (hora)
DESCASC
Temp. media en grados centígrados
DESCASC
Racha de viento máxima en m/sg (hora)
DESCASC
Velocidad máxima media en intervalos de 10 minutos(hora)
DESCASC
Precipitaciones diarias en mm
DESCASC
Precipitaciones de 00:00 a 06:00 en mm
DESCASC
Precipitaciones de 06:00 a 12:00 en mm
DESCASC
Precipitaciones de 12:00 a 18:00 en mm
DESCASC
Precipitaciones de 18:00 a 24:00 en mm
DESCASC
18-04-2019 15.6 (00:20) 9.2 (13:00) 12.4 5.83 (04:20) 2.22 (04:40) 34 9.8 20.6 3.6 0
17-04-2019 24.4 (16:10) 10 (06:50) 17.2 10.28 (09:40) 3.89 (11:30) 0.2 0 0 0 0.2
16-04-2019 23.8 (17:40) 8.3 (00:00) 16 8.89 (23:59) 2.78 (12:40) 0 0 0 0 0
15-04-2019 26.7 (15:50) 12.6 (00:00) 19.7 12.22 (17:50) 5 (16:40) 0 0 0 0 0
14-04-2019 24.9 (17:40) 8.1 (00:00) 16.5 7.5 (18:00) 3.06 (18:00) 0 0 0 0 0
13-04-2019 23.4 (18:20) 5.7 (00:00) 14.5 5.83 (13:30) 1.94 (19:00) 0 0 0 0 0
12-04-2019 19 (18:10) 3.8 (00:00) 11.4 8.06 (15:40) 3.33 (17:00) 0 0 0 0 0
11-04-2019 17.3 (17:10) 2.9 (00:00) 10.1 8.33 (18:50) 3.89 (15:40) 0 0 0 0 0
10-04-2019 14.6 (17:10) 3.6 (00:00) 9.1 10 (17:30) 3.89 (17:00) 0 0 0 0 0
09-04-2019 14.8 (18:20) 4.7 (00:00) 9.8 11.11 (18:00) 4.72 (17:40) 1 0 0 0.6 0.4
08-04-2019 17.8 (17:20) 9.2 (00:00) 13.5 9.17 (12:50) 3.61 (13:00) 5.2 2 3.2 0 0
07-04-2019 13.8 (16:00) 4.8 (00:00) 9.3 8.33 (15:50) 3.61 (18:40) 0.6 0 0 0 0.6
06-04-2019 12.1 (15:50) 2.9 (00:00) 7.5 13.06 (16:00) 5 (14:10) 0.4 0.2 0 0.2 0
05-04-2019 10.3 (00:10) 5.1 (00:00) 7.7 11.67 (18:20) 4.44 (19:10) 2.8 0 0 2.8 0
04-04-2019 16.5 (18:00) 2 (00:00) 9.3 8.61 (17:40) 2.78 (18:10) 0 0 0 0 0
03-04-2019 19.7 (16:20) 5 (00:00) 12.4 10.28 (19:20) 3.89 (13:50) 0 0 0 0 0
02-04-2019 18.3 (17:40) 7.8 (00:00) 13 8.33 (19:40) 3.06 (19:40) 0.6 0.4 0.2 0 0
01-04-2019 16.8 (17:40) 9 (00:00) 12.9 6.67 (23:00) 2.78 (23:20) 3.6 0.8 0 0 2.8
31-03-2019 10.7 (15:00) 7.6 (00:00) 9.1 8.33 (08:30) 3.06 (10:10) 5.6 0 0.8 4.2 0.6
30-03-2019 19.8 (16:50) 6 (00:00) 12.9 9.72 (22:50) 3.89 (22:50) 0 0 0 0 0
29-03-2019 18.1 (16:30) 5 (00:00) 11.6 9.72 (10:40) 3.89 (10:40) 0 0 0 0 0
28-03-2019 19.6 (15:10) 4 (00:00) 11.8 8.06 (11:50) 3.06 (11:50) 0 0 0 0 0
27-03-2019 18.6 (16:40) 4.2 (00:00) 11.4 7.22 (00:30) 3.33 (00:30) 0 0 0 0 0
26-03-2019 20.9 (15:10) 3.4 (00:00) 12.1 11.67 (12:30) 3.89 (10:50) 0 0 0 0 0
25-03-2019 22.7 (16:10) 4.6 (00:00) 13.7 6.39 (15:00) 2.78 (13:40) 0 0 0 0 0
24-03-2019 20.7 (15:20) 5.6 (00:00) 13.2 10 (12:40) 3.89 (15:00) 0 0 0 0 0
23-03-2019 18.6 (14:00) 5.5 (00:00) 12.1 10.56 (15:40) 3.89 (17:50) 0 0 0 0 0
22-03-2019 18.9 (16:10) 1.9 (00:00) 10.4 8.06 (11:50) 3.33 (18:30) 0 0 0 0 0
21-03-2019 16 (16:50) 3.1 (00:00) 9.5 9.17 (00:20) 2.78 (00:30) 0 0 0 0 0

Gráficas

Temp. máximas Temp. mínimas Temp. medias Precipitaciones Rachas de viento máximas Velocidades máximas media en intervalos de 10 minutos

Datos horarios

Fecha y hora oficial Temperatura (ºC) Velocidad del viento (km/h) Dirección del viento Racha (km/h) Dirección de racha Precipitación (mm) Presión (hPa) Tendencia (hPa) Humedad (%)
2019-04-19 23:00:00 8 5 Nordeste 14 Este 2.4 -- -- 95
2019-04-19 22:00:00 8 9 Nordeste 19 Nordeste 2.8 -- -- 95
2019-04-19 21:00:00 8.3 3 Este 10 Este 2.4 -- -- 94
2019-04-19 20:00:00 8.4 2 Sudeste 12 Sudeste 3.2 -- -- 93
2019-04-19 19:00:00 8.5 4 Este 15 Nordeste 2 -- -- 92
2019-04-19 18:00:00 8.8 6 Este 20 Sudeste 1.8 -- -- 89
2019-04-19 17:00:00 9.2 5 Este 24 Este 1.8 -- -- 90
2019-04-19 16:00:00 9.7 8 Nordeste 23 Nordeste 2.4 -- -- 88
2019-04-19 15:00:00 10.7 6 Nordeste 14 Nordeste 2.2 -- -- 89
2019-04-19 14:00:00 11.2 3 Sudeste 8 Este 1.8 -- -- 84
2019-04-19 13:00:00 11.8 4 Sudeste 13 Sudeste 0 -- -- 78
2019-04-19 12:00:00 11.3 4 Sudeste 14 Sudeste 0 -- -- 83
2019-04-19 11:00:00 10.9 5 Sudeste 12 Este 0 -- -- 87
2019-04-19 10:00:00 10.4 3 Sudeste 10 Este 0 -- -- 89
2019-04-19 09:00:00 9.9 5 Sudeste 12 Sudeste 0 -- -- 91
2019-04-19 08:00:00 9.5 3 Sudeste 9 Sudoeste 0 -- -- 91
2019-04-19 07:00:00 9.5 5 Sur 9 Sudeste 0 -- -- 92
2019-04-19 06:00:00 9.5 4 Sur 9 Sur 0 -- -- 93
2019-04-19 05:00:00 9.4 5 Sur 11 Sur 0.2 -- -- 93
2019-04-19 04:00:00 9.5 4 Sur 11 Sur 0 -- -- 93
2019-04-19 03:00:00 9.6 5 Sur 11 Sur 0.2 -- -- 93
2019-04-19 02:00:00 9.8 5 Sur 12 Sur 0 -- -- 92
2019-04-19 01:00:00 10 3 Sur 8 Sur 0 -- -- 92
2019-04-19 00:00:00 10.2 0 Calma 10 Sur 0 -- -- 90
2019-04-18 23:00:00 10.6 4 Sur 12 Sur 0 -- -- 89
2019-04-18 22:00:00 11.1 3 Sudeste 10 Sur 0 -- -- 86
2019-04-18 21:00:00 11.8 0 Calma 8 Sudeste 0 -- -- 78
2019-04-18 20:00:00 12.5 2 Sur 5 Sur 0 -- -- 72
2019-04-18 19:00:00 12.6 0 Calma 6 Sudoeste 0 -- -- 69
2019-04-18 18:00:00 13.3 3 Sur 10 Sur 0 -- -- 69
2019-04-18 17:00:00 12.7 3 Sur 11 Sur 0 -- -- 74
2019-04-18 16:00:00 11.9 4 Sur 13 Sudeste 0 -- -- 77
2019-04-18 15:00:00 10.8 5 Sudeste 20 Nordeste 0 -- -- 82
2019-04-18 14:00:00 10.2 4 Este 18 Este 1 -- -- 87
2019-04-18 13:00:00 9.2 6 Este 17 Sudeste 2.6 -- -- 89
2019-04-18 12:00:00 9.7 7 Este 16 Nordeste 2.8 -- -- 89
2019-04-18 11:00:00 10.2 5 Sudeste 15 Sudeste 2.2 -- -- 93
2019-04-18 10:00:00 10.2 4 Sudeste 12 Sudeste 3.6 -- -- 93
2019-04-18 09:00:00 10.2 3 Norte 5 Nordeste 3.6 -- -- 93
2019-04-18 08:00:00 10.2 2 Este 9 Sudeste 2.8 -- -- 93
2019-04-18 07:00:00 10.1 0 Calma 15 Este 5.6 -- -- 94
2019-04-18 06:00:00 10.6 6 Sudeste 18 Este 1 -- -- 94
2019-04-18 05:00:00 11 6 Sudeste 21 Este 2.2 -- -- 93
2019-04-18 04:00:00 11.3 7 Sudeste 18 Sudeste 3.8 -- -- 92
2019-04-18 03:00:00 12.1 3 Sudeste 14 Sudeste 1.2 -- -- 89
2019-04-18 02:00:00 12.9 4 Sudeste 19 Este 1.4 -- -- 85
2019-04-18 01:00:00 14.8 5 Sudeste 14 Sur 0.2 -- -- 73
2019-04-18 00:00:00 15.3 4 Sudeste 18 Sur 0 -- -- 67
2019-04-17 23:00:00 16.6 3 Sudeste 18 Este 0.2 -- -- 64
2019-04-17 22:00:00 17.9 4 Norte 8 Oeste 0 -- -- 63
2019-04-17 21:00:00 18.7 6 Nordeste 21 Este 0 -- -- 57
2019-04-17 20:00:00 20.1 8 Sudeste 29 Sur 0 -- -- 48
2019-04-17 19:00:00 21.2 10 Sudeste 36 Sur 0 -- -- 46
2019-04-17 18:00:00 22.4 12 Sudeste 31 Sudeste 0 -- -- 41
2019-04-17 17:00:00 23.8 13 Sudeste 36 Este 0 -- -- 37
2019-04-17 16:00:00 24.3 10 Sudeste 35 Sudeste 0 -- -- 37
2019-04-17 15:00:00 23.4 13 Sudeste 32 Sudeste 0 -- -- 38
2019-04-17 14:00:00 22.7 11 Sudeste 31 Sudeste 0 -- -- 40
2019-04-17 13:00:00 20.2 11 Sudeste 32 Sudeste 0 -- -- 46
2019-04-17 12:00:00 18.3 12 Sudeste 32 Sudeste 0 -- -- 52
2019-04-17 11:00:00 15.9 13 Sudeste 33 Sudeste 0 -- -- 59
2019-04-17 10:00:00 13.5 13 Sudeste 37 Este 0 -- -- 69
2019-04-17 09:00:00 11.4 12 Sudeste 31 Este 0 -- -- 79
2019-04-17 08:00:00 10.1 8 Sudeste 28 Este 0 -- -- 84
2019-04-17 07:00:00 10 9 Sudeste 31 Este 0 -- -- 83
2019-04-17 06:00:00 10.2 8 Sudeste 30 Sudeste 0 -- -- 82
2019-04-17 05:00:00 10.6 9 Sudeste 32 Este 0 -- -- 79
2019-04-17 04:00:00 11.1 9 Sudeste 34 Este 0 -- -- 76
2019-04-17 03:00:00 11.9 10 Sudeste 31 Este 0 -- -- 73
2019-04-17 02:00:00 13.1 9 Sudeste 30 Este 0 -- -- 72
2019-04-17 01:00:00 14.1 10 Sudeste 31 Sudeste 0 -- -- 69
2019-04-17 00:00:00 15.4 10 Sudeste 32 Sudeste 0 -- -- 65
2019-04-16 23:00:00 16.8 8 Sudeste 26 Sudeste 0 -- -- 57
2019-04-16 22:00:00 19.2 8 Sudeste 17 Sudeste 0 -- -- 40
2019-04-16 21:00:00 21 4 Sudeste 17 Sudeste 0 -- -- 31
2019-04-16 20:00:00 22.6 5 Sudeste 16 Este 0 -- -- 27
2019-04-16 19:00:00 23.2 5 Sur 16 Sur 0 -- -- 25
2019-04-16 18:00:00 23.8 5 Sudeste 16 Este 0 -- -- 25
2019-04-16 17:00:00 23.7 6 Sur 19 Sudoeste 0 -- -- 25
2019-04-16 16:00:00 22.6 7 Sur 21 Sur 0 -- -- 27
2019-04-16 15:00:00 21.7 6 Sudeste 21 Sur 0 -- -- 25
2019-04-16 14:00:00 20.3 9 Sur 20 Sudeste 0 -- -- 31
2019-04-16 13:00:00 18.8 6 Sudeste 23 Sur 0 -- -- 38
2019-04-16 12:00:00 17.3 6 Sudeste 15 Este 0 -- -- 48
2019-04-16 11:00:00 14.8 3 Sudeste 8 Sudeste 0 -- -- 58
2019-04-16 10:00:00 11.8 3 Sur 6 Sur 0 -- -- 69
2019-04-16 09:00:00 9.2 3 Nordeste 6 Norte 0 -- -- 75
2019-04-16 08:00:00 8.3 2 Norte 5 Nordeste 0 -- -- 77
2019-04-16 07:00:00 8.8 0 Calma 4 Sudoeste 0 -- -- 76
2019-04-16 06:00:00 9.7 0 Calma 7 Norte 0 -- -- 73
2019-04-16 05:00:00 9.9 0 Calma 7 Sudoeste 0 -- -- 74
2019-04-16 04:00:00 10.9 0 Calma 6 Sudoeste 0 -- -- 67
2019-04-16 03:00:00 11.7 0 Calma 5 Oeste 0 -- -- 64
2019-04-16 02:00:00 12.6 2 Sudoeste 10 Noroeste 0 -- -- 60
2019-04-16 01:00:00 13.8 4 Noroeste 19 Noroeste 0 -- -- 54
2019-04-16 00:00:00 14.5 6 Noroeste 21 Noroeste 0 -- -- 60
2019-04-15 23:00:00 15.3 11 Noroeste 26 Noroeste 0 -- -- 63
2019-04-15 22:00:00 16.2 12 Noroeste 33 Noroeste 0 -- -- 58
2019-04-15 21:00:00 20 9 Noroeste 34 Oeste 0 -- -- 39
2019-04-15 20:00:00 23.2 13 Noroeste 33 Noroeste 0 -- -- 35
2019-04-15 19:00:00 24.4 12 Sudoeste 39 Sudoeste 0 -- -- 26
2019-04-15 18:00:00 25.8 12 Sudoeste 44 Noroeste 0 -- -- 24
2019-04-15 17:00:00 26.3 15 Sudoeste 39 Sudoeste 0 -- -- 26
2019-04-15 16:00:00 26.7 14 Oeste 32 Sur 0 -- -- 25
2019-04-15 15:00:00 25.1 11 Sudoeste 30 Sudoeste 0 -- -- 37
2019-04-15 14:00:00 23.6 10 Sudoeste 27 Sudoeste 0 -- -- 40
2019-04-15 13:00:00 21.7 6 Sudoeste 19 Sur 0 -- -- 49
2019-04-15 12:00:00 20 6 Sudeste 14 Sudeste 0 -- -- 53
2019-04-15 11:00:00 18.2 5 Sudeste 18 Sudeste 0 -- -- 59
2019-04-15 10:00:00 15.3 5 Sudeste 11 Sudeste 0 -- -- 70
2019-04-15 09:00:00 13.2 2 Sudeste 6 Este 0 -- -- 76
2019-04-15 08:00:00 12.6 0 Calma 7 Sudeste 0 -- -- 77
2019-04-15 07:00:00 12.7 3 Sudeste 9 Sur 0 -- -- 77
2019-04-15 06:00:00 12.8 3 Sudeste 8 Sur 0 -- -- 77
2019-04-15 05:00:00 13.1 0 Calma 4 Sur 0 -- -- 75
2019-04-15 04:00:00 13.5 0 Calma 6 Sur 0 -- -- 73
2019-04-15 03:00:00 14.1 3 Sur 10 Sur 0 -- -- 70
2019-04-15 02:00:00 15.4 2 Sudeste 6 Sur 0 -- -- 65
2019-04-15 01:00:00 15.7 0 Calma 6 Sur 0 -- -- 62
2019-04-15 00:00:00 16.1 0 Calma 6 Sur 0 -- -- 59
2019-04-14 23:00:00 16.9 2 Sudoeste 8 Sudoeste 0 -- -- 56
2019-04-14 22:00:00 18.3 4 Oeste 16 Oeste 0 -- -- 51
2019-04-14 21:00:00 19.9 7 Sudoeste 17 Oeste 0 -- -- 46
2019-04-14 20:00:00 21.5 9 Sudoeste 26 Sudoeste 0 -- -- 44
2019-04-14 19:00:00 23.1 9 Sudoeste 27 Oeste 0 -- -- 41
2019-04-14 18:00:00 24.7 11 Sudoeste 27 Sudoeste 0 -- -- 38
2019-04-14 17:00:00 24.1 7 Sudoeste 20 Oeste 0 -- -- 40
2019-04-14 16:00:00 23.9 9 Sur 22 Oeste 0 -- -- 41
2019-04-14 15:00:00 23.1 7 Sur 16 Sur 0 -- -- 38
2019-04-14 14:00:00 21.9 6 Sur 19 Sudoeste 0 -- -- 38
2019-04-14 13:00:00 20.8 4 Sur 14 Sur 0 -- -- 37
2019-04-14 12:00:00 18.3 5 Oeste 13 Oeste 0 -- -- 48
2019-04-14 11:00:00 15.5 3 Sur 10 Sur 0 -- -- 51
2019-04-14 10:00:00 11.6 3 Sudoeste 10 Sur 0 -- -- 63
2019-04-14 09:00:00 9.2 3 Sur 5 Sur 0 -- -- 68
2019-04-14 08:00:00 8.1 2 Sur 8 Sur 0 -- -- 69
2019-04-14 07:00:00 8.7 2 Sur 7 Sudoeste 0 -- -- 66
2019-04-14 06:00:00 8.8 4 Sur 10 Sudoeste 0 -- -- 65
2019-04-14 05:00:00 9.3 3 Sudoeste 8 Sur 0 -- -- 65
2019-04-14 04:00:00 10.5 3 Sur 8 Sur 0 -- -- 62
2019-04-14 03:00:00 11.1 0 Calma 6 Sudoeste 0 -- -- 60
2019-04-14 02:00:00 12.1 4 Sur 6 Sur 0 -- -- 56
2019-04-14 01:00:00 13.2 0 Calma 4 Norte 0 -- -- 47
2019-04-14 00:00:00 14.2 2 Noroeste 5 Noroeste 0 -- -- 45
2019-04-13 23:00:00 15.4 2 Sudoeste 6 Oeste 0 -- -- 29
2019-04-13 22:00:00 17.1 0 Calma 10 Nordeste 0 -- -- 22
2019-04-13 21:00:00 19.4 5 Norte 14 Norte 0 -- -- 19
2019-04-13 20:00:00 21 2 Oeste 13 Sudoeste 0 -- -- 26
2019-04-13 19:00:00 22.3 7 Oeste 16 Sur 0 -- -- 23
2019-04-13 18:00:00 23.2 5 Oeste 15 Oeste 0 -- -- 22
2019-04-13 17:00:00 22.9 6 Sudoeste 15 Oeste 0 -- -- 19
2019-04-13 16:00:00 21.7 5 Noroeste 17 Noroeste 0 -- -- 20
2019-04-13 15:00:00 20.1 5 Norte 18 Noroeste 0 -- -- 21
2019-04-13 14:00:00 19.3 6 Noroeste 21 Norte 0 -- -- 25
2019-04-13 13:00:00 18.3 5 Sudoeste 15 Noroeste 0 -- -- 30
2019-04-13 12:00:00 16.7 2 Sudoeste 9 Sudoeste 0 -- -- 34
2019-04-13 11:00:00 13.5 4 Sur 8 Sur 0 -- -- 45
2019-04-13 10:00:00 9.4 2 Sur 8 Sur 0 -- -- 59
2019-04-13 09:00:00 6.2 0 Calma 4 Sur 0 -- -- 62
2019-04-13 08:00:00 5.8 0 Calma 5 Nordeste 0 -- -- 60
2019-04-13 07:00:00 6.2 2 Nordeste 5 Norte 0 -- -- 57
2019-04-13 06:00:00 6.2 2 Norte 6 Noroeste 0 -- -- 57
2019-04-13 05:00:00 7 2 Norte 7 Noroeste 0 -- -- 54
2019-04-13 04:00:00 7.7 3 Noroeste 8 Norte 0 -- -- 53
2019-04-13 03:00:00 8.3 3 Noroeste 9 Noroeste 0 -- -- 52
2019-04-13 02:00:00 9.8 2 Noroeste 8 Noroeste 0 -- -- 48
2019-04-13 01:00:00 10.5 3 Noroeste 8 Noroeste 0 -- -- 43
2019-04-13 00:00:00 11.3 0 Calma 9 Oeste 0 -- -- 40
2019-04-12 23:00:00 12.6 0 Calma 3 Oeste 0 -- -- 40
2019-04-12 22:00:00 14.4 0 Calma 6 Norte 0 -- -- 33
2019-04-12 21:00:00 16.3 4 Norte 18 Norte 0 -- -- 29
2019-04-12 20:00:00 17.7 8 Noroeste 29 Noroeste 0 -- -- 27
2019-04-12 19:00:00 18.5 7 Norte 24 Noroeste 0 -- -- 27
2019-04-12 18:00:00 18.9 8 Noroeste 28 Norte 0 -- -- 29
2019-04-12 17:00:00 18.2 12 Norte 24 Noroeste 0 -- -- 29
2019-04-12 16:00:00 18 9 Noroeste 29 Noroeste 0 -- -- 31
2019-04-12 15:00:00 16.8 6 Noroeste 22 Noroeste 0 -- -- 33
2019-04-12 14:00:00 15.7 5 Norte 21 Norte 0 -- -- 37
2019-04-12 13:00:00 14.6 8 Noroeste 18 Nordeste 0 -- -- 40
2019-04-12 12:00:00 12.5 8 Norte 18 Nordeste 0 -- -- 46
2019-04-12 11:00:00 11 6 Noroeste 15 Noroeste 0 -- -- 51
2019-04-12 10:00:00 8.3 2 Noroeste 8 Noroeste 0 -- -- 64
2019-04-12 09:00:00 4.7 2 Norte 8 Noroeste 0 -- -- 72
2019-04-12 08:00:00 3.9 0 Calma 5 Norte 0 -- -- 71
2019-04-12 07:00:00 3.9 0 Calma 5 Noroeste 0 -- -- 72
2019-04-12 06:00:00 4.2 0 Calma 9 Noroeste 0 -- -- 71
2019-04-12 05:00:00 4.9 0 Calma 6 Norte 0 -- -- 68
2019-04-12 04:00:00 5.7 4 Norte 10 Norte 0 -- -- 63
2019-04-12 03:00:00 6.1 3 Noroeste 8 Norte 0 -- -- 63
2019-04-12 02:00:00 6.6 3 Norte 7 Norte 0 -- -- 61
2019-04-12 01:00:00 7.4 3 Norte 6 Norte 0 -- -- 57
2019-04-12 00:00:00 9 3 Norte 13 Norte 0 -- -- 53
2019-04-11 23:00:00 10.4 4 Norte 9 Norte 0 -- -- 48
2019-04-11 22:00:00 11.9 4 Norte 12 Norte 0 -- -- 43
2019-04-11 21:00:00 13.8 5 Norte 14 Noroeste 0 -- -- 35
2019-04-11 20:00:00 15 6 Norte 19 Norte 0 -- -- 33
2019-04-11 19:00:00 16.4 10 Norte 30 Noroeste 0 -- -- 31
2019-04-11 18:00:00 16.2 6 Norte 24 Norte 0 -- -- 33
2019-04-11 17:00:00 17.1 9 Norte 29 Norte 0 -- -- 29
2019-04-11 16:00:00 16.1 10 Norte 29 Norte 0 -- -- 32
2019-04-11 15:00:00 15.7 9 Norte 24 Norte 0 -- -- 36
2019-04-11 14:00:00 15.5 8 Norte 27 Noroeste 0 -- -- 38
2019-04-11 13:00:00 13.3 10 Norte 24 Norte 0 -- -- 45
2019-04-11 12:00:00 11.9 10 Norte 23 Norte 0 -- -- 52
2019-04-11 11:00:00 10.4 9 Norte 20 Norte 0 -- -- 57
2019-04-11 10:00:00 7.7 5 Noroeste 15 Noroeste 0 -- -- 73
2019-04-11 09:00:00 4.9 3 Noroeste 9 Norte 0 -- -- 84
2019-04-11 08:00:00 3.1 4 Norte 9 Norte 0 -- -- 87
2019-04-11 07:00:00 3.2 0 Calma 7 Norte 0 -- -- 88
2019-04-11 06:00:00 3.6 2 Noroeste 10 Norte 0 -- -- 88
2019-04-11 05:00:00 3.8 5 Norte 10 Norte 0 -- -- 87
2019-04-11 04:00:00 4.9 2 Norte 12 Norte 0 -- -- 83
2019-04-11 03:00:00 5.6 5 Norte 14 Norte 0 -- -- 82
2019-04-11 02:00:00 6.3 6 Norte 12 Norte 0 -- -- 79
2019-04-11 01:00:00 7 4 Noroeste 10 Noroeste 0 -- -- 78
2019-04-11 00:00:00 7.8 3 Nordeste 9 Nordeste 0 -- -- 77
2019-04-10 23:00:00 9 3 Sudoeste 13 Noroeste 0 -- -- 74
2019-04-10 22:00:00 9.8 2 Noroeste 14 Noroeste 0 -- -- 66
2019-04-10 21:00:00 10.8 6 Noroeste 17 Noroeste 0 -- -- 63
2019-04-10 20:00:00 12.1 9 Norte 24 Norte 0 -- -- 54
2019-04-10 19:00:00 12.3 8 Noroeste 32 Noroeste 0 -- -- 55
2019-04-10 18:00:00 12.5 9 Noroeste 36 Noroeste 0 -- -- 53
2019-04-10 17:00:00 14.4 14 Noroeste 30 Noroeste 0 -- -- 43
2019-04-10 16:00:00 10.8 5 Noroeste 31 Noroeste 0 -- -- 66
2019-04-10 15:00:00 13.7 8 Noroeste 24 Noroeste 0 -- -- 43
2019-04-10 14:00:00 13.6 8 Noroeste 28 Noroeste 0 -- -- 42
2019-04-10 13:00:00 14.2 9 Noroeste 26 Oeste 0 -- -- 43
2019-04-10 12:00:00 12.1 8 Noroeste 23 Oeste 0 -- -- 51
2019-04-10 11:00:00 10.7 6 Noroeste 21 Noroeste 0 -- -- 64
2019-04-10 10:00:00 7.2 5 Oeste 10 Oeste 0 -- -- 87
2019-04-10 09:00:00 4.2 3 Sudoeste 7 Sudoeste 0 -- -- 94
2019-04-10 08:00:00 3.6 0 Calma 5 Oeste 0 -- -- 93
2019-04-10 07:00:00 3.9 0 Calma 8 Oeste 0 -- -- 93
2019-04-10 06:00:00 4.3 4 Oeste 9 Sudoeste 0 -- -- 91
2019-04-10 05:00:00 5 3 Sudoeste 12 Sudoeste 0 -- -- 88
2019-04-10 04:00:00 6.6 3 Sudoeste 10 Sur 0 -- -- 82
2019-04-10 03:00:00 7.4 2 Noroeste 7 Oeste 0 -- -- 81
2019-04-10 02:00:00 7.4 2 Oeste 13 Sudoeste 0 -- -- 81
2019-04-10 01:00:00 8.1 4 Oeste 13 Sudoeste 0 -- -- 80
2019-04-10 00:00:00 8.2 4 Oeste 11 Oeste 0 -- -- 83
2019-04-09 23:00:00 8.9 2 Sudoeste 10 Oeste 0 -- -- 77
2019-04-09 22:00:00 9.7 4 Oeste 9 Sudoeste 0 -- -- 73
2019-04-09 21:00:00 10.1 3 Noroeste 14 Noroeste 0.2 -- -- 70
2019-04-09 20:00:00 10.8 4 Noroeste 24 Noroeste 0.2 -- -- 67
2019-04-09 19:00:00 13.5 9 Oeste 31 Oeste 0 -- -- 50
2019-04-09 18:00:00 14.6 15 Oeste 40 Sudoeste 0 -- -- 51
2019-04-09 17:00:00 13.9 12 Oeste 34 Oeste 0.4 -- -- 58
2019-04-09 16:00:00 12.9 11 Oeste 31 Oeste 0.2 -- -- 61
2019-04-09 15:00:00 11.3 7 Noroeste 34 Oeste 0 -- -- 65
2019-04-09 14:00:00 13.1 13 Sudoeste 34 Oeste 0 -- -- 59
2019-04-09 13:00:00 13 10 Oeste 29 Oeste 0 -- -- 52
2019-04-09 12:00:00 11.5 8 Oeste 28 Oeste 0 -- -- 59
2019-04-09 11:00:00 10.2 8 Sudoeste 26 Oeste 0 -- -- 72
2019-04-09 10:00:00 8.1 9 Sudoeste 26 Oeste 0 -- -- 85
2019-04-09 09:00:00 5.4 4 Sudoeste 18 Sudoeste 0 -- -- 92
2019-04-09 08:00:00 4.8 4 Sudoeste 12 Sudoeste 0 -- -- 91
2019-04-09 07:00:00 5.1 3 Sudoeste 11 Oeste 0 -- -- 88
2019-04-09 06:00:00 5.7 3 Sudoeste 9 Oeste 0 -- -- 87
2019-04-09 05:00:00 6.7 2 Sur 18 Oeste 0 -- -- 83
2019-04-09 04:00:00 8.2 3 Sudoeste 10 Sudoeste 0 -- -- 79
2019-04-09 03:00:00 8.6 2 Sudoeste 9 Norte 0 -- -- 72
2019-04-09 02:00:00 9.6 3 Noroeste 16 Oeste 0 -- -- 66
2019-04-09 01:00:00 10 5 Noroeste 18 Noroeste 0 -- -- 64
2019-04-09 00:00:00 9.7 5 Oeste 14 Oeste 0 -- -- 63
2019-04-08 23:00:00 10.9 3 Oeste 15 Oeste 0 -- -- 57
2019-04-08 22:00:00 12 5 Oeste 21 Sudoeste 0 -- -- 56
2019-04-08 21:00:00 13.4 10 Oeste 28 Oeste 0 -- -- 55
2019-04-08 20:00:00 15.3 9 Oeste 27 Oeste 0 -- -- 48
2019-04-08 19:00:00 16.4 9 Oeste 29 Oeste 0 -- -- 48
2019-04-08 18:00:00 16.7 8 Oeste 28 Oeste 0 -- -- 50
2019-04-08 17:00:00 17.4 11 Oeste 31 Oeste 0 -- -- 49
2019-04-08 16:00:00 17.2 12 Oeste 29 Oeste 0 -- -- 51
2019-04-08 15:00:00 16.3 8 Oeste 29 Oeste 0 -- -- 54
2019-04-08 14:00:00 17.1 11 Oeste 33 Oeste 0 -- -- 51
2019-04-08 13:00:00 14.4 13 Oeste 33 Noroeste 0 -- -- 69
2019-04-08 12:00:00 12.5 9 Sudoeste 24 Oeste 0 -- -- 84
2019-04-08 11:00:00 10.6 8 Sudoeste 18 Oeste 0 -- -- 93
2019-04-08 10:00:00 9.7 6 Sudoeste 18 Oeste 0.6 -- -- 95
2019-04-08 09:00:00 9.5 4 Sudoeste 14 Sur 0 -- -- 96
2019-04-08 08:00:00 9.5 5 Sudoeste 12 Sudoeste 0.6 -- -- 96
2019-04-08 07:00:00 9.6 4 Sudoeste 17 Oeste 2 -- -- 96
2019-04-08 06:00:00 9.5 3 Sudoeste 19 Oeste 1.8 -- -- 95
2019-04-08 05:00:00 9.4 4 Sudoeste 14 Oeste 0 -- -- 94
2019-04-08 04:00:00 9.5 5 Sudoeste 13 Sur 0 -- -- 94
2019-04-08 03:00:00 9.5 4 Sudoeste 15 Sur 0 -- -- 94
2019-04-08 02:00:00 9.3 7 Sur 17 Sudoeste 0.2 -- -- 93
2019-04-08 01:00:00 9.4 4 Sur 9 Sudoeste 0 -- -- 89
2019-04-08 00:00:00 9.5 3 Sur 8 Sudoeste 0 -- -- 87
2019-04-07 23:00:00 9.6 3 Sudoeste 10 Sudoeste 0 -- -- 85
2019-04-07 22:00:00 9.7 3 Sudoeste 9 Sudoeste 0 -- -- 83
2019-04-07 21:00:00 10 3 Oeste 19 Sudoeste 0.6 -- -- 80
2019-04-07 20:00:00 11.6 8 Sudoeste 26 Oeste 0 -- -- 65
2019-04-07 19:00:00 12.2 9 Oeste 30 Oeste 0 -- -- 56
2019-04-07 18:00:00 13.3 9 Oeste 27 Sudoeste 0 -- -- 50
2019-04-07 17:00:00 13.4 9 Oeste 27 Oeste 0 -- -- 50
2019-04-07 16:00:00 13.8 12 Oeste 30 Oeste 0 -- -- 47
2019-04-07 15:00:00 12.9 9 Oeste 23 Sur 0 -- -- 49
2019-04-07 14:00:00 12.2 8 Oeste 22 Oeste 0 -- -- 51
2019-04-07 13:00:00 11.2 5 Oeste 20 Noroeste 0 -- -- 56
2019-04-07 12:00:00 11.1 6 Noroeste 19 Noroeste 0 -- -- 54
2019-04-07 11:00:00 9.7 6 Noroeste 18 Oeste 0 -- -- 62
2019-04-07 10:00:00 7.5 5 Noroeste 12 Oeste 0 -- -- 74
2019-04-07 09:00:00 5.6 3 Oeste 8 Noroeste 0 -- -- 85
2019-04-07 08:00:00 5.2 3 Oeste 14 Sudoeste 0 -- -- 85
2019-04-07 07:00:00 5.7 4 Oeste 14 Oeste 0 -- -- 85
2019-04-07 06:00:00 5.8 4 Noroeste 12 Oeste 0 -- -- 84
2019-04-07 05:00:00 5.8 2 Sudoeste 19 Oeste 0 -- -- 87
2019-04-07 04:00:00 5.8 4 Oeste 18 Oeste 0 -- -- 81
2019-04-07 03:00:00 5.2 3 Sudoeste 18 Oeste 0 -- -- 87
2019-04-07 02:00:00 4.8 5 Sudoeste 16 Sur 0 -- -- 86
2019-04-07 01:00:00 5.6 4 Oeste 17 Sur 0 -- -- 78
2019-04-07 00:00:00 6.3 7 Sur 17 Sur 0 -- -- 78
2019-04-06 23:00:00 7 6 Oeste 21 Oeste 0 -- -- 69
2019-04-06 22:00:00 7.2 6 Oeste 23 Oeste 0 -- -- 66
2019-04-06 21:00:00 8 7 Oeste 29 Oeste 0 -- -- 63
2019-04-06 20:00:00 8.9 11 Oeste 34 Oeste 0 -- -- 60
2019-04-06 19:00:00 9.7 12 Oeste 40 Oeste 0 -- -- 57
2019-04-06 18:00:00 9.9 11 Oeste 29 Oeste 0 -- -- 58
2019-04-06 17:00:00 9.5 11 Oeste 36 Noroeste 0.2 -- -- 67
2019-04-06 16:00:00 11.2 17 Oeste 47 Oeste 0 -- -- 50
2019-04-06 15:00:00 11.2 12 Oeste 42 Oeste 0 -- -- 55
2019-04-06 14:00:00 10 16 Oeste 40 Oeste 0 -- -- 60
2019-04-06 13:00:00 7.6 13 Oeste 32 Sudoeste 0 -- -- 78
2019-04-06 12:00:00 7.9 9 Oeste 27 Sudoeste 0 -- -- 75
2019-04-06 11:00:00 6.1 6 Sudoeste 26 Sudoeste 0 -- -- 88
2019-04-06 10:00:00 5.6 9 Sudoeste 27 Sudoeste 0 -- -- 87
2019-04-06 09:00:00 5 5 Oeste 19 Sudoeste 0 -- -- 84
2019-04-06 08:00:00 4.2 5 Sudoeste 15 Oeste 0 -- -- 89
2019-04-06 07:00:00 3.5 3 Sudoeste 9 Sur 0 -- -- 93
2019-04-06 06:00:00 3.4 4 Sudoeste 14 Sur 0 -- -- 89
2019-04-06 05:00:00 4.8 4 Sudoeste 16 Sudoeste 0 -- -- 85
2019-04-06 04:00:00 5 6 Oeste 15 Oeste 0.2 -- -- 86
2019-04-06 03:00:00 4.9 6 Sudoeste 18 Sudoeste 0 -- -- 90
2019-04-06 02:00:00 5 6 Sudoeste 18 Oeste 0 -- -- 87
2019-04-06 01:00:00 5.4 6 Sudoeste 19 Oeste 0 -- -- 82
2019-04-06 00:00:00 5.8 5 Sudoeste 26 Sudoeste 0 -- -- 78
2019-04-05 23:00:00 5.6 4 Sudoeste 15 Oeste 0 -- -- 72
2019-04-05 22:00:00 5.5 4 Oeste 14 Oeste 0 -- -- 73
2019-04-05 21:00:00 6.1 8 Oeste 30 Oeste 0 -- -- 71
2019-04-05 20:00:00 7.5 8 Oeste 41 Oeste 0 -- -- 68
2019-04-05 19:00:00 8.5 15 Oeste 42 Oeste 0 -- -- 63
2019-04-05 18:00:00 9.9 9 Oeste 37 Oeste 0.2 -- -- 67
2019-04-05 17:00:00 9.8 9 Sudoeste 22 Oeste 0 -- -- 71
2019-04-05 16:00:00 7.8 6 Sudoeste 25 Sudoeste 0 -- -- 82
2019-04-05 15:00:00 6.5 8 Sudoeste 27 Oeste 2.6 -- -- 89
2019-04-05 14:00:00 8.9 8 Sudoeste 29 Sur 0 -- -- 73
2019-04-05 13:00:00 8.5 11 Sur 32 Sudoeste 0 -- -- 74
2019-04-05 12:00:00 7.9 14 Sur 30 Sur 0 -- -- 75
2019-04-05 11:00:00 7.8 15 Sur 32 Sur 0 -- -- 80
2019-04-05 10:00:00 7.9 9 Sudoeste 25 Sudoeste 0 -- -- 72
2019-04-05 09:00:00 7.9 10 Sudoeste 24 Sudoeste 0 -- -- 68
2019-04-05 08:00:00 7.7 7 Sur 23 Sur 0 -- -- 69
2019-04-05 07:00:00 7.8 9 Sudoeste 19 Sur 0 -- -- 65
2019-04-05 06:00:00 8.1 6 Sudoeste 18 Sur 0 -- -- 61
2019-04-05 05:00:00 8.4 6 Sudoeste 17 Sudoeste 0 -- -- 54
2019-04-05 04:00:00 8.8 5 Sudoeste 14 Sur 0 -- -- 49
2019-04-05 03:00:00 9.1 6 Sudoeste 15 Oeste 0 -- -- 49
2019-04-05 02:00:00 9.5 5 Sudoeste 14 Sudoeste 0 -- -- 48
2019-04-05 01:00:00 9.7 4 Sudoeste 10 Oeste 0 -- -- 49
2019-04-05 00:00:00 10.2 3 Oeste 9 Oeste 0 -- -- 46
2019-04-04 23:00:00 11.1 2 Oeste 10 Sur 0 -- -- 41
2019-04-04 22:00:00 12.1 3 Sur 9 Sur 0 -- -- 35
2019-04-04 21:00:00 13.2 5 Sur 13 Sudoeste 0 -- -- 32
2019-04-04 20:00:00 14.4 8 Sudoeste 18 Oeste 0 -- -- 30
2019-04-04 19:00:00 15.3 7 Sudoeste 28 Sur 0 -- -- 27
2019-04-04 18:00:00 16.5 8 Sudoeste 31 Sur 0 -- -- 25
2019-04-04 17:00:00 15.4 6 Sur 17 Sur 0 -- -- 26
2019-04-04 16:00:00 15 5 Sur 18 Noroeste 0 -- -- 26
2019-04-04 15:00:00 13.6 6 Noroeste 20 Noroeste 0 -- -- 27
2019-04-04 14:00:00 12.9 5 Oeste 17 Noroeste 0 -- -- 29
2019-04-04 13:00:00 11.4 4 Noroeste 13 Noroeste 0 -- -- 32
2019-04-04 12:00:00 9.7 4 Norte 13 Nordeste 0 -- -- 37
2019-04-04 11:00:00 8.1 6 Norte 13 Norte 0 -- -- 41
2019-04-04 10:00:00 4.9 6 Norte 11 Norte 0 -- -- 54
2019-04-04 09:00:00 2.5 4 Nordeste 9 Nordeste 0 -- -- 63
2019-04-04 08:00:00 2 4 Norte 9 Norte 0 -- -- 66
2019-04-04 07:00:00 2.3 5 Norte 11 Nordeste 0 -- -- 64
2019-04-04 06:00:00 3 3 Nordeste 9 Norte 0 -- -- 63
2019-04-04 05:00:00 4.1 5 Norte 14 Norte 0 -- -- 59
2019-04-04 04:00:00 5 6 Norte 12 Noroeste 0 -- -- 57
2019-04-04 03:00:00 6.2 4 Norte 10 Norte 0 -- -- 51
2019-04-04 02:00:00 7.4 4 Norte 13 Norte 0 -- -- 47
2019-04-04 01:00:00 8.3 4 Noroeste 14 Norte 0 -- -- 47
2019-04-04 00:00:00 9.7 5 Noroeste 14 Noroeste 0 -- -- 42
2019-04-03 23:00:00 11.2 6 Norte 23 Noroeste 0 -- -- 38
2019-04-03 22:00:00 12.2 8 Norte 25 Norte 0 -- -- 35
2019-04-03 21:00:00 13.1 11 Norte 27 Norte 0 -- -- 35
2019-04-03 20:00:00 14.5 13 Norte 37 Norte 0 -- -- 36
2019-04-03 19:00:00 17.8 9 Oeste 28 Oeste 0 -- -- 32
2019-04-03 18:00:00 19.3 12 Oeste 29 Oeste 0 -- -- 27
2019-04-03 17:00:00 19.7 12 Oeste 32 Norte 0 -- -- 27
2019-04-03 16:00:00 19.3 11 Noroeste 31 Oeste 0 -- -- 28
2019-04-03 15:00:00 19 11 Oeste 30 Oeste 0 -- -- 28
2019-04-03 14:00:00 18.3 10 Oeste 36 Sudoeste 0 -- -- 30
2019-04-03 13:00:00 17.4 10 Oeste 27 Sudoeste 0 -- -- 35
2019-04-03 12:00:00 15.6 9 Sudoeste 24 Oeste 0 -- -- 54
2019-04-03 11:00:00 13.2 8 Sudoeste 18 Sudoeste 0 -- -- 68
2019-04-03 10:00:00 8.2 5 Sudoeste 15 Oeste 0 -- -- 87
2019-04-03 09:00:00 5.8 4 Oeste 10 Oeste 0 -- -- 90
2019-04-03 08:00:00 5.2 6 Sur 12 Sur 0 -- -- 88
2019-04-03 07:00:00 5.9 5 Sudoeste 10 Sur 0 -- -- 86
2019-04-03 06:00:00 6.3 4 Sudoeste 11 Sur 0 -- -- 86
2019-04-03 05:00:00 7 4 Sur 10 Sur 0 -- -- 86
2019-04-03 04:00:00 7.7 4 Sur 10 Sur 0 -- -- 86
2019-04-03 03:00:00 8.4 4 Sur 10 Sur 0 -- -- 86
2019-04-03 02:00:00 9.5 4 Sur 6 Sur 0 -- -- 87
2019-04-03 01:00:00 9.9 2 Sur 6 Sudeste 0 -- -- 84
2019-04-03 00:00:00 10.3 3 Sur 10 Sudoeste 0 -- -- 84
2019-04-02 23:00:00 11.3 3 Sur 6 Sur 0 -- -- 81
2019-04-02 22:00:00 12.4 2 Sudoeste 7 Sudoeste 0 -- -- 78
2019-04-02 21:00:00 13.5 0 Calma 17 Norte 0 -- -- 71
2019-04-02 20:00:00 14.2 6 Norte 30 Noroeste 0 -- -- 65
2019-04-02 19:00:00 17.3 7 Oeste 21 Oeste 0 -- -- 50
2019-04-02 18:00:00 18.2 8 Oeste 28 Noroeste 0 -- -- 48
2019-04-02 17:00:00 17.7 8 Oeste 23 Oeste 0 -- -- 50
2019-04-02 16:00:00 15.3 6 Oeste 19 Noroeste 0 -- -- 60
2019-04-02 15:00:00 16.5 9 Oeste 22 Oeste 0 -- -- 60
2019-04-02 14:00:00 15.5 5 Oeste 14 Sudoeste 0 -- -- 68
2019-04-02 13:00:00 13.4 4 Sudoeste 15 Oeste 0 -- -- 78
2019-04-02 12:00:00 11.8 5 Sudoeste 12 Sudoeste 0.2 -- -- 91
2019-04-02 11:00:00 10.4 5 Sudoeste 13 Sudoeste 0 -- -- 93
2019-04-02 10:00:00 9.3 4 Sudoeste 10 Sudoeste 0 -- -- 95
2019-04-02 09:00:00 8 3 Sur 6 Sur 0 -- -- 95
2019-04-02 08:00:00 7.8 0 Calma 6 Sur 0 -- -- 94
2019-04-02 07:00:00 8.5 2 Sur 6 Sur 0 -- -- 93
2019-04-02 06:00:00 9.2 2 Sur 6 Sur 0 -- -- 92
2019-04-02 05:00:00 9.5 2 Sudoeste 7 Oeste 0 -- -- 93
2019-04-02 04:00:00 9.7 2 Sudoeste 6 Sur 0 -- -- 91
2019-04-02 03:00:00 9.9 4 Sur 8 Sur 0 -- -- 90
2019-04-02 02:00:00 10 0 Calma 5 Sur 0 -- -- 90
2019-04-02 01:00:00 10.3 5 Sudoeste 10 Sur 0.4 -- -- 88
2019-04-02 00:00:00 10.3 2 Oeste 23 Sudoeste 2.8 -- -- 87
2019-04-01 23:00:00 10.8 8 Sudoeste 24 Oeste 0 -- -- 85
2019-04-01 22:00:00 12.7 5 Sur 12 Sudoeste 0 -- -- 77
2019-04-01 21:00:00 13.3 3 Sudeste 11 Este 0 -- -- 74
2019-04-01 20:00:00 14.5 3 Este 15 Este 0 -- -- 69
2019-04-01 19:00:00 15.1 5 Este 17 Este 0 -- -- 69
2019-04-01 18:00:00 16.5 5 Sudoeste 17 Oeste 0 -- -- 56
2019-04-01 17:00:00 15.6 3 Sudoeste 9 Norte 0 -- -- 61
2019-04-01 16:00:00 15.4 5 Noroeste 15 Noroeste 0 -- -- 62
2019-04-01 15:00:00 15.4 4 Oeste 13 Sur 0 -- -- 62
2019-04-01 14:00:00 14.7 3 Sudoeste 12 Sudoeste 0 -- -- 67
2019-04-01 13:00:00 13.4 3 Sur 9 Sur 0 -- -- 75
2019-04-01 12:00:00 11.7 4 Sur 9 Sur 0 -- -- 85
2019-04-01 11:00:00 10.6 2 Sur 6 Sur 0 -- -- 87
2019-04-01 10:00:00 9.7 3 Sur 9 Sur 0 -- -- 94
2019-04-01 09:00:00 9.3 4 Sudeste 10 Sudeste 0 -- -- 94
2019-04-01 08:00:00 9.1 3 Sudeste 7 Sudeste 0 -- -- 94
2019-04-01 07:00:00 9.1 3 Sudeste 13 Sudeste 0 -- -- 94
2019-04-01 06:00:00 9 4 Sudeste 12 Este 0 -- -- 94
2019-04-01 05:00:00 9 3 Sudeste 14 Sudeste 0 -- -- 95
2019-04-01 04:00:00 9.1 4 Sudeste 15 Sudeste 0.6 -- -- 95
2019-04-01 03:00:00 9.1 3 Este 14 Sur 0.2 -- -- 94
2019-04-01 02:00:00 9.2 4 Sudeste 15 Sudeste 0 -- -- 93
2019-04-01 01:00:00 9.4 4 Sudeste 15 Sudeste 0 -- -- 92
2019-04-01 00:00:00 9.3 5 Este 17 Este 0 -- -- 93
2019-03-31 23:00:00 9.2 5 Este 19 Este 0 -- -- 94
2019-03-31 22:00:00 9.1 4 Este 15 Este 0.4 -- -- 95
2019-03-31 21:00:00 9.4 4 Este 16 Este 0.2 -- -- 93
2019-03-31 20:00:00 9.7 6 Este 18 Este 0 -- -- 91
2019-03-31 19:00:00 9.8 5 Sudeste 18 Este 0 -- -- 90
2019-03-31 18:00:00 10.1 6 Sudeste 17 Este 0 -- -- 88
2019-03-31 17:00:00 10.5 5 Sudeste 19 Este 0.2 -- -- 89
2019-03-31 16:00:00 10.6 4 Sudeste 19 Este 0 -- -- 85
2019-03-31 15:00:00 10.7 5 Sudeste 19 Este 0.6 -- -- 87
2019-03-31 14:00:00 9.5 6 Sudeste 21 Sudeste 1.6 -- -- 92
2019-03-31 13:00:00 8.3 9 Sudeste 22 Sudeste 1.8 -- -- 90
2019-03-31 12:00:00 8 8 Sudeste 23 Este 0.8 -- -- 89
2019-03-31 11:00:00 8 8 Sudeste 28 Este 0 -- -- 87
2019-03-31 10:00:00 7.9 10 Sudeste 26 Sur 0 -- -- 84
2019-03-31 09:00:00 7.8 9 Sudeste 30 Este 0 -- -- 84
2019-03-31 08:00:00 7.7 9 Sudeste 26 Sudeste 0 -- -- 75
2019-03-31 07:00:00 7.8 8 Sudeste 23 Este 0 -- -- 69
2019-03-31 06:00:00 7.9 6 Sudeste 21 Sudeste 0 -- -- 67
2019-03-31 05:00:00 8.4 8 Sudeste 23 Este 0 -- -- 69
2019-03-31 03:00:00 8.9 9 Sudeste 24 Este 0 -- -- 67
2019-03-31 01:00:00 9.4 7 Sudeste 23 Este 0 -- -- 67
2019-03-31 00:00:00 10.5 10 Sudeste 30 Sudeste 0 -- -- 67
2019-03-30 23:00:00 11.7 10 Sudeste 35 Sudeste 0 -- -- 63
2019-03-30 22:00:00 13 8 Sudeste 25 Sudeste 0 -- -- 57
2019-03-30 21:00:00 14.4 9 Sudeste 31 Este 0 -- -- 52
2019-03-30 20:00:00 16.3 12 Sudeste 28 Este 0 -- -- 41
2019-03-30 19:00:00 17.8 7 Sudeste 26 Este 0 -- -- 37
2019-03-30 18:00:00 18.9 7 Sudeste 24 Sudeste 0 -- -- 34
2019-03-30 17:00:00 19.7 9 Este 27 Este 0 -- -- 33
2019-03-30 16:00:00 19.5 7 Sudeste 29 Sudeste 0 -- -- 34
2019-03-30 15:00:00 18.9 9 Este 30 Este 0 -- -- 34
2019-03-30 14:00:00 17.6 9 Este 31 Este 0 -- -- 37
2019-03-30 13:00:00 16.3 8 Sudeste 26 Sur 0 -- -- 43
2019-03-30 12:00:00 14.3 9 Este 27 Este 0 -- -- 49
2019-03-30 11:00:00 12.2 9 Sudeste 28 Sudeste 0 -- -- 56
2019-03-30 10:00:00 10.9 9 Sudeste 27 Este 0 -- -- 60
2019-03-30 09:00:00 8.3 9 Sudeste 31 Sudeste 0 -- -- 71
2019-03-30 08:00:00 6.5 5 Sudeste 25 Nordeste 0 -- -- 78
2019-03-30 07:00:00 6.1 5 Sudeste 25 Este 0 -- -- 77
2019-03-30 06:00:00 6.3 5 Sudeste 22 Este 0 -- -- 74
2019-03-30 05:00:00 6.7 7 Sudeste 29 Sur 0 -- -- 71
2019-03-30 04:00:00 7.4 7 Sudeste 28 Este 0 -- -- 66
2019-03-30 03:00:00 8 7 Sudeste 23 Este 0 -- -- 63
2019-03-30 02:00:00 8.2 8 Sudeste 26 Sudeste 0 -- -- 60
2019-03-30 01:00:00 8.6 8 Sudeste 26 Sudeste 0 -- -- 60
2019-03-30 00:00:00 9.2 8 Sudeste 32 Este 0 -- -- 60
2019-03-29 23:00:00 10.1 9 Este 24 Sudeste 0 -- -- 56
2019-03-29 22:00:00 11.2 6 Sudeste 20 Este 0 -- -- 49
2019-03-29 21:00:00 12.4 6 Sudeste 19 Este 0 -- -- 45
2019-03-29 20:00:00 13.9 7 Sudeste 22 Este 0 -- -- 42
2019-03-29 19:00:00 15.4 8 Sudeste 30 Sur 0 -- -- 36
2019-03-29 18:00:00 16.8 9 Sudeste 26 Este 0 -- -- 32
2019-03-29 17:00:00 17.9 8 Sudeste 23 Sudeste 0 -- -- 30
2019-03-29 16:00:00 17.4 9 Sudeste 22 Sur 0 -- -- 33
2019-03-29 15:00:00 17.3 7 Sudeste 27 Sur 0 -- -- 31
2019-03-29 14:00:00 17.9 8 Sudeste 27 Sur 0 -- -- 29
2019-03-29 13:00:00 16.8 10 Sudeste 28 Este 0 -- -- 32
2019-03-29 12:00:00 15 10 Sudeste 32 Sudeste 0 -- -- 37
2019-03-29 11:00:00 12.8 11 Sudeste 35 Este 0 -- -- 41
2019-03-29 10:00:00 10.6 10 Sudeste 26 Este 0 -- -- 50
2019-03-29 09:00:00 7.5 9 Sudeste 28 Nordeste 0 -- -- 62
2019-03-29 08:00:00 5.6 7 Sudeste 26 Nordeste 0 -- -- 67
2019-03-29 07:00:00 5.1 9 Este 24 Nordeste 0 -- -- 63
2019-03-29 06:00:00 5.5 6 Sudeste 25 Nordeste 0 -- -- 58
2019-03-29 05:00:00 5.9 7 Sudeste 22 Sudeste 0 -- -- 56
2019-03-29 04:00:00 6.3 7 Sudeste 25 Este 0 -- -- 53
2019-03-29 03:00:00 6.7 6 Sudeste 21 Este 0 -- -- 48
2019-03-29 02:00:00 7.4 6 Sudeste 23 Sur 0 -- -- 48
2019-03-29 01:00:00 8.7 4 Sudeste 18 Sudeste 0 -- -- 36
2019-03-29 00:00:00 9.4 6 Sudeste 14 Sudeste 0 -- -- 32
2019-03-28 23:00:00 10.3 5 Sudeste 15 Sudeste 0 -- -- 31
2019-03-28 22:00:00 12 6 Sudeste 15 Sudeste 0 -- -- 29
2019-03-28 21:00:00 13.9 4 Sudeste 17 Sudeste 0 -- -- 26
2019-03-28 20:00:00 15.4 5 Sudeste 15 Sudeste 0 -- -- 25
2019-03-28 19:00:00 17 6 Sudeste 20 Sudeste 0 -- -- 23
2019-03-28 18:00:00 18 7 Sudeste 24 Sudeste 0 -- -- 21
2019-03-28 17:00:00 19.3 7 Sudeste 25 Este 0 -- -- 20
2019-03-28 16:00:00 19.3 9 Sudeste 22 Este 0 -- -- 17
2019-03-28 15:00:00 19.3 7 Sudeste 25 Sudeste 0 -- -- 20
2019-03-28 14:00:00 18.3 9 Sudeste 27 Sudeste 0 -- -- 21
2019-03-28 13:00:00 17.5 7 Sudeste 26 Sudeste 0 -- -- 22
2019-03-28 12:00:00 15.9 9 Sudeste 29 Sudeste 0 -- -- 23
2019-03-28 11:00:00 14 8 Sudeste 23 Sudeste 0 -- -- 23
2019-03-28 10:00:00 11.5 6 Sudeste 17 Sudeste 0 -- -- 33
2019-03-28 09:00:00 8 4 Sudeste 18 Este 0 -- -- 46
2019-03-28 08:00:00 5.3 5 Este 14 Este 0 -- -- 52
2019-03-28 07:00:00 4.1 3 Este 13 Este 0 -- -- 54
2019-03-28 06:00:00 4.2 3 Sudeste 14 Este 0 -- -- 55
2019-03-28 05:00:00 5.4 4 Sudeste 14 Este 0 -- -- 54
2019-03-28 04:00:00 6 3 Sudeste 14 Este 0 -- -- 53
2019-03-28 03:00:00 6.6 3 Sudeste 13 Este 0 -- -- 50
2019-03-28 02:00:00 7.1 4 Sudeste 13 Sudeste 0 -- -- 49
2019-03-28 01:00:00 7.7 5 Sudeste 19 Este 0 -- -- 41
2019-03-28 00:00:00 8.9 5 Sudeste 19 Este 0 -- -- 33
2019-03-27 23:00:00 10.7 5 Sudeste 13 Sudeste 0 -- -- 28
2019-03-27 22:00:00 12.1 3 Sudeste 9 Este 0 -- -- 26
2019-03-27 21:00:00 13.2 3 Sudeste 13 Sudeste 0 -- -- 23
2019-03-27 20:00:00 14.6 4 Sudeste 17 Sudeste 0 -- -- 22
2019-03-27 19:00:00 16.3 7 Sudeste 20 Sudeste 0 -- -- 22
2019-03-27 18:00:00 17.5 5 Este 19 Este 0 -- -- 21
2019-03-27 17:00:00 18.5 6 Nordeste 21 Este 0 -- -- 20
2019-03-27 16:00:00 18.3 7 Sudeste 23 Este 0 -- -- 19
2019-03-27 15:00:00 17.8 5 Este 22 Nordeste 0 -- -- 20
2019-03-27 14:00:00 16.6 8 Sudeste 23 Este 0 -- -- 23
2019-03-27 13:00:00 15.6 5 Sudeste 21 Este 0 -- -- 27
2019-03-27 12:00:00 14.3 7 Sudeste 22 Sudeste 0 -- -- 29
2019-03-27 11:00:00 12.5 7 Sudeste 20 Sudeste 0 -- -- 36
2019-03-27 10:00:00 10.2 6 Sudeste 21 Este 0 -- -- 47
2019-03-27 09:00:00 6.8 5 Sudeste 15 Sudeste 0 -- -- 67
2019-03-27 08:00:00 4.5 4 Este 15 Nordeste 0 -- -- 78
2019-03-27 07:00:00 4.6 5 Sudeste 16 Sudeste 0 -- -- 74
2019-03-27 06:00:00 5.3 4 Sudeste 13 Este 0 -- -- 72
2019-03-27 05:00:00 5.2 3 Nordeste 16 Este 0 -- -- 73
2019-03-27 04:00:00 5.8 6 Sudeste 18 Sur 0 -- -- 71
2019-03-27 03:00:00 6.4 8 Sudeste 23 Sudeste 0 -- -- 70
2019-03-27 02:00:00 7 6 Este 21 Sudeste 0 -- -- 68
2019-03-27 01:00:00 7.9 7 Sudeste 26 Sudeste 0 -- -- 67
2019-03-27 00:00:00 9.5 7 Sudeste 23 Este 0 -- -- 50
2019-03-26 23:00:00 10.9 8 Sudeste 27 Este 0 -- -- 40
2019-03-26 22:00:00 12.2 8 Sudeste 25 Este 0 -- -- 40
2019-03-26 21:00:00 14.1 9 Sudeste 30 Sudeste 0 -- -- 36
2019-03-26 20:00:00 15.5 10 Sudeste 29 Este 0 -- -- 32
2019-03-26 19:00:00 17.1 8 Sudeste 28 Este 0 -- -- 30
2019-03-26 18:00:00 18.6 12 Sudeste 29 Este 0 -- -- 29
2019-03-26 17:00:00 20.4 9 Sudeste 32 Sudeste 0 -- -- 29
2019-03-26 16:00:00 20.7 12 Este 32 Este 0 -- -- 29
2019-03-26 15:00:00 20.7 9 Sudeste 31 Sudeste 0 -- -- 28
2019-03-26 14:00:00 19.8 12 Sudeste 39 Este 0 -- -- 29
2019-03-26 13:00:00 18.4 13 Sudeste 42 Este 0 -- -- 30
2019-03-26 12:00:00 17.2 12 Sudeste 34 Este 0 -- -- 32
2019-03-26 11:00:00 14.9 12 Sudeste 39 Sudeste 0 -- -- 35
2019-03-26 10:00:00 12.1 10 Sudeste 23 Sudeste 0 -- -- 41
2019-03-26 09:00:00 6 2 Nordeste 8 Nordeste 0 -- -- 53
2019-03-26 08:00:00 3.7 3 Norte 8 Nordeste 0 -- -- 57
2019-03-26 07:00:00 3.9 3 Norte 13 Norte 0 -- -- 55
2019-03-26 06:00:00 4.7 4 Norte 10 Noroeste 0 -- -- 53
2019-03-26 05:00:00 5.7 3 Norte 9 Nordeste 0 -- -- 48
2019-03-26 04:00:00 7.3 2 Nordeste 12 Norte 0 -- -- 44
2019-03-26 03:00:00 8.7 3 Nordeste 8 Nordeste 0 -- -- 43
2019-03-26 02:00:00 8.4 4 Norte 10 Este 0 -- -- 35
2019-03-26 01:00:00 9.8 4 Nordeste 12 Norte 0 -- -- 30
2019-03-26 00:00:00 13.5 5 Norte 14 Nordeste 0 -- -- 26
2019-03-25 23:00:00 15.1 8 Nordeste 17 Este 0 -- -- 24
2019-03-25 22:00:00 16 5 Nordeste 15 Nordeste 0 -- -- 23
2019-03-25 21:00:00 16.4 0 Calma 8 Nordeste 0 -- -- 26
2019-03-25 20:00:00 18.3 0 Calma 9 Sudeste 0 -- -- 22
2019-03-25 19:00:00 20.2 3 Sudeste 15 Este 0 -- -- 20
2019-03-25 18:00:00 21.3 5 Este 18 Este 0 -- -- 19
2019-03-25 17:00:00 22.5 6 Este 17 Este 0 -- -- 18
2019-03-25 16:00:00 22.4 6 Este 19 Nordeste 0 -- -- 18
2019-03-25 15:00:00 22.4 7 Sudeste 23 Este 0 -- -- 18
2019-03-25 14:00:00 21.8 9 Sur 22 Sur 0 -- -- 19
2019-03-25 13:00:00 20.8 8 Sudeste 21 Nordeste 0 -- -- 21
2019-03-25 12:00:00 19 3 Norte 9 Noroeste 0 -- -- 26
2019-03-25 11:00:00 16.2 3 Norte 6 Norte 0 -- -- 32
2019-03-25 10:00:00 12.2 0 Calma 6 Norte 0 -- -- 39
2019-03-25 09:00:00 6.2 2 Norte 8 Noroeste 0 -- -- 52
2019-03-25 08:00:00 4.6 0 Calma 4 Oeste 0 -- -- 62
2019-03-25 07:00:00 5.1 0 Calma 3 Sur 0 -- -- 59
2019-03-25 06:00:00 6.6 0 Calma 4 Norte 0 -- -- 55
2019-03-25 05:00:00 7.7 2 Norte 4 Norte 0 -- -- 49
2019-03-25 04:00:00 8.3 0 Calma 5 Nordeste 0 -- -- 49
2019-03-25 03:00:00 9.1 0 Calma 8 Este 0 -- -- 48
2019-03-25 02:00:00 9.7 3 Este 12 Este 0 -- -- 45
2019-03-25 01:00:00 10.5 3 Este 15 Este 0 -- -- 45
2019-03-25 00:00:00 11.3 3 Este 13 Este 0 -- -- 39
2019-03-24 23:00:00 12.8 3 Sudeste 10 Sudeste 0 -- -- 37
2019-03-24 22:00:00 13.6 4 Sudeste 12 Este 0 -- -- 35
2019-03-24 21:00:00 15 3 Este 19 Este 0 -- -- 31
2019-03-24 20:00:00 16.8 7 Sudeste 18 Sudeste 0 -- -- 31
2019-03-24 19:00:00 18.3 6 Sudeste 21 Sur 0 -- -- 30
2019-03-24 18:00:00 19.5 8 Sudeste 26 Sudeste 0 -- -- 29
2019-03-24 17:00:00 19.9 12 Sudeste 29 Sudeste 0 -- -- 29
2019-03-24 16:00:00 20.3 8 Sudeste 32 Sur 0 -- -- 28
2019-03-24 15:00:00 19.9 14 Sudeste 32 Sudeste 0 -- -- 32
2019-03-24 14:00:00 19.9 13 Sudeste 34 Este 0 -- -- 33
2019-03-24 13:00:00 19 12 Sudeste 36 Este 0 -- -- 33
2019-03-24 12:00:00 17.8 10 Sudeste 35 Este 0 -- -- 35
2019-03-24 11:00:00 15.7 9 Sudeste 31 Este 0 -- -- 41
2019-03-24 10:00:00 12.6 8 Sudeste 21 Sudeste 0 -- -- 51
2019-03-24 09:00:00 8.8 5 Sudeste 18 Este 0 -- -- 64
2019-03-24 08:00:00 6.1 4 Sudeste 14 Este 0 -- -- 74
2019-03-24 07:00:00 6.1 4 Sudeste 15 Este 0 -- -- 71
2019-03-24 06:00:00 7.2 4 Sudeste 15 Sudeste 0 -- -- 69
2019-03-24 05:00:00 8.6 4 Sudeste 17 Este 0 -- -- 65
2019-03-24 04:00:00 8.8 4 Sudeste 17 Este 0 -- -- 67
2019-03-24 03:00:00 9.2 3 Sudeste 13 Este 0 -- -- 65
2019-03-24 02:00:00 10.1 5 Este 18 Este 0 -- -- 63
2019-03-24 01:00:00 10.6 5 Sudeste 16 Este 0 -- -- 60
2019-03-24 00:00:00 11 5 Sudeste 14 Este 0 -- -- 57
2019-03-23 23:00:00 11.7 4 Este 13 Este 0 -- -- 53
2019-03-23 22:00:00 12.7 3 Sudeste 14 Sudeste 0 -- -- 50
2019-03-23 21:00:00 13.4 3 Sudeste 13 Este 0 -- -- 51
2019-03-23 20:00:00 14.2 5 Sudeste 18 Sudeste 0 -- -- 48
2019-03-23 19:00:00 15.6 8 Sudeste 25 Sur 0 -- -- 44
2019-03-23 18:00:00 16.4 13 Sudeste 33 Sur 0 -- -- 41
2019-03-23 17:00:00 17.5 12 Sudeste 30 Sur 0 -- -- 37
2019-03-23 16:00:00 18.2 10 Sudeste 38 Sudeste 0 -- -- 34
2019-03-23 15:00:00 18.6 9 Sudeste 33 Sur 0 -- -- 34
2019-03-23 14:00:00 18.6 11 Sudeste 35 Sudeste 0 -- -- 33
2019-03-23 13:00:00 17.6 10 Sudeste 28 Nordeste 0 -- -- 35
2019-03-23 12:00:00 16.1 9 Este 28 Este 0 -- -- 38
2019-03-23 11:00:00 14.4 5 Sudeste 18 Este 0 -- -- 43
2019-03-23 10:00:00 10.4 3 Sur 8 Sur 0 -- -- 55
2019-03-23 09:00:00 6.1 0 Calma 9 Nordeste 0 -- -- 65
2019-03-23 08:00:00 5.7 2 Norte 6 Nordeste 0 -- -- 66
2019-03-23 07:00:00 5.8 3 Nordeste 9 Nordeste 0 -- -- 65
2019-03-23 06:00:00 6.6 0 Calma 6 Oeste 0 -- -- 66
2019-03-23 05:00:00 7.7 0 Calma 6 Este 0 -- -- 61
2019-03-23 04:00:00 8.1 3 Este 10 Este 0 -- -- 60
2019-03-23 03:00:00 8.5 2 Sudeste 14 Este 0 -- -- 60
2019-03-23 02:00:00 8.8 4 Este 17 Este 0 -- -- 59
2019-03-23 01:00:00 9.1 2 Este 11 Este 0 -- -- 58
2019-03-23 00:00:00 9.7 3 Sudeste 20 Este 0 -- -- 56
2019-03-22 23:00:00 10.7 4 Sudeste 16 Este 0 -- -- 53
2019-03-22 22:00:00 11.8 5 Sudeste 18 Sudeste 0 -- -- 50
2019-03-22 21:00:00 13 4 Sudeste 15 Este 0 -- -- 46
2019-03-22 20:00:00 14.5 5 Sudeste 19 Este 0 -- -- 39
2019-03-22 19:00:00 16.2 10 Sudeste 26 Sudeste 0 -- -- 34
2019-03-22 18:00:00 17.9 9 Sudeste 27 Sur 0 -- -- 31
2019-03-22 17:00:00 18.8 8 Sudeste 28 Sudeste 0 -- -- 28
2019-03-22 16:00:00 18.7 9 Sudeste 27 Este 0 -- -- 29
2019-03-22 15:00:00 18.1 9 Sudeste 24 Este 0 -- -- 28
2019-03-22 14:00:00 17.8 7 Este 20 Sudeste 0 -- -- 28
2019-03-22 13:00:00 16.1 8 Sudeste 26 Sudeste 0 -- -- 29
2019-03-22 12:00:00 15 7 Sudeste 29 Sur 0 -- -- 29
2019-03-22 11:00:00 12.2 6 Nordeste 14 Nordeste 0 -- -- 38
2019-03-22 10:00:00 8.5 4 Norte 9 Norte 0 -- -- 51
2019-03-22 09:00:00 3.2 3 Norte 12 Nordeste 0 -- -- 65
2019-03-22 08:00:00 2 2 Norte 9 Norte 0 -- -- 69
2019-03-22 07:00:00 2.7 3 Norte 9 Norte 0 -- -- 68
2019-03-22 06:00:00 4.4 2 Nordeste 5 Norte 0 -- -- 73
2019-03-22 05:00:00 4.6 0 Calma 10 Nordeste 0 -- -- 69
2019-03-22 04:00:00 4.8 2 Este 13 Este 0 -- -- 63
2019-03-22 03:00:00 5.3 4 Sudeste 14 Sudeste 0 -- -- 52
2019-03-22 02:00:00 5.6 4 Sudeste 15 Este 0 -- -- 49
2019-03-22 01:00:00 6.3 5 Sudeste 17 Sudeste 0 -- -- 47
2019-03-22 00:00:00 7.1 6 Sudeste 19 Sudeste 0 -- -- 44
2019-03-21 23:00:00 8 5 Sudeste 15 Sudeste 0 -- -- 41
2019-03-21 22:00:00 9 4 Sudeste 15 Este 0 -- -- 39
2019-03-21 21:00:00 10.6 5 Sudeste 15 Sudeste 0 -- -- 34
2019-03-21 20:00:00 12 6 Sudeste 17 Sudeste 0 -- -- 32
2019-03-21 19:00:00 13.8 7 Sudeste 23 Sur 0 -- -- 30
2019-03-21 18:00:00 14.8 8 Sur 20 Sur 0 -- -- 28
2019-03-21 17:00:00 16 8 Sudeste 22 Sur 0 -- -- 25
2019-03-21 16:00:00 15.7 5 Sudeste 19 Sur 0 -- -- 26
2019-03-21 15:00:00 15.6 6 Este 22 Este 0 -- -- 27
2019-03-21 14:00:00 14.7 7 Nordeste 23 Sudeste 0 -- -- 29
2019-03-21 13:00:00 14.2 6 Sudeste 22 Este 0 -- -- 30
2019-03-21 12:00:00 13 7 Sudeste 17 Sudeste 0 -- -- 33
2019-03-21 11:00:00 10.9 4 Nordeste 13 Nordeste 0 -- -- 46
2019-03-21 10:00:00 9 4 Sudeste 12 Este 0 -- -- 56
2019-03-21 09:00:00 5.1 3 Este 13 Este 0 -- -- 73
2019-03-21 08:00:00 3.3 3 Este 13 Este 0 -- -- 80
2019-03-21 07:00:00 3.4 3 Sudeste 11 Sudeste 0 -- -- 77
2019-03-21 06:00:00 3.6 3 Este 12 Este 0 -- -- 72
2019-03-21 05:00:00 4.5 2 Este 21 Este 0 -- -- 66
2019-03-21 04:00:00 5.5 5 Sudeste 16 Este 0 -- -- 59
2019-03-21 03:00:00 6.4 4 Sudeste 13 Sudeste 0 -- -- 59
2019-03-21 02:00:00 7.3 5 Sudeste 19 Sudeste 0 -- -- 58
2019-03-21 01:00:00 8.1 6 Sudeste 33 Sudeste 0 -- -- 56
2019-03-21 00:00:00 8.7 10 Sudeste 22 Este 0 -- -- 50